createdAt,value
2022-09-11T00:00:19.761Z,53.17
2022-09-11T00:01:19.842Z,51.56
2022-09-11T00:02:19.748Z,52.05
2022-09-11T00:03:19.702Z,52.69
2022-09-11T00:04:19.713Z,52.21
2022-09-11T00:05:19.716Z,50.92
2022-09-11T00:06:28.909Z,55.59
2022-09-11T00:07:21.638Z,53.17
2022-09-11T00:08:19.616Z,51.88
2022-09-11T00:09:19.636Z,51.56
2022-09-11T00:10:19.596Z,50.76
2022-09-11T00:11:19.575Z,50.60
2022-09-11T00:12:19.611Z,49.47
2022-09-11T00:13:19.545Z,53.50
2022-09-11T00:14:19.552Z,51.08
2022-09-11T00:15:19.507Z,51.08
2022-09-11T00:16:19.514Z,50.11
2022-09-11T00:17:19.475Z,51.72
2022-09-11T00:18:19.449Z,51.72
2022-09-11T00:19:19.474Z,51.08
2022-09-11T00:20:19.431Z,51.88
2022-09-11T00:21:19.395Z,51.24
2022-09-11T00:22:19.393Z,52.85
2022-09-11T00:23:19.364Z,51.24
2022-09-11T00:24:19.381Z,51.40
2022-09-11T00:25:19.330Z,51.56
2022-09-11T00:26:19.323Z,50.60
2022-09-11T00:27:19.297Z,51.24
2022-09-11T00:28:19.284Z,49.79
2022-09-11T00:29:19.287Z,54.79
2022-09-11T00:30:19.252Z,53.98
2022-09-11T00:31:19.262Z,51.24
2022-09-11T00:32:19.221Z,50.43
2022-09-11T00:33:19.241Z,50.27
2022-09-11T00:34:19.239Z,50.27
2022-09-11T00:35:19.178Z,51.72
2022-09-11T00:36:19.152Z,50.60
2022-09-11T00:37:19.144Z,50.11
2022-09-11T00:38:19.110Z,49.79
2022-09-11T00:39:19.153Z,51.56
2022-09-11T00:40:19.110Z,52.21
2022-09-11T00:41:19.084Z,51.72
2022-09-11T00:42:19.062Z,53.17
2022-09-11T00:43:19.039Z,50.76
2022-09-11T00:44:19.044Z,50.60
2022-09-11T00:45:19.019Z,50.27
2022-09-11T00:46:18.993Z,51.56
2022-09-11T00:47:18.978Z,50.60
2022-09-11T00:48:18.962Z,51.72
2022-09-11T00:49:18.993Z,51.08
2022-09-11T00:50:19.523Z,52.05
2022-09-11T00:51:19.906Z,50.60
2022-09-11T00:52:18.896Z,52.05
2022-09-11T00:53:18.865Z,51.72
2022-09-11T00:54:18.879Z,49.95
2022-09-11T00:55:18.828Z,50.76
2022-09-11T00:56:18.811Z,51.40
2022-09-11T00:57:18.870Z,51.24
2022-09-11T00:58:18.843Z,52.21
2022-09-11T00:59:18.794Z,53.17
2022-09-11T01:00:18.744Z,52.05
2022-09-11T01:01:18.797Z,51.88
2022-09-11T01:02:18.712Z,52.69
2022-09-11T01:03:18.708Z,51.08
2022-09-11T01:04:18.711Z,50.92
2022-09-11T01:05:18.670Z,52.05
2022-09-11T01:06:18.647Z,52.85
2022-09-11T01:07:18.639Z,51.24
2022-09-11T01:08:18.607Z,51.88
2022-09-11T01:09:18.623Z,51.40
2022-09-11T01:10:18.594Z,51.40
2022-09-11T01:11:18.564Z,50.11
2022-09-11T01:12:18.540Z,52.21
2022-09-11T01:13:18.734Z,51.08
2022-09-11T01:14:18.537Z,52.21
2022-09-11T01:15:18.498Z,52.21
2022-09-11T01:16:18.566Z,50.43
2022-09-11T01:17:18.457Z,49.31
2022-09-11T01:18:18.452Z,51.08
2022-09-11T01:19:18.460Z,50.43
2022-09-11T01:20:18.417Z,50.76
2022-09-11T01:21:18.391Z,53.50
2022-09-11T01:22:18.380Z,50.60
2022-09-11T01:23:20.914Z,50.92
2022-09-11T01:24:18.391Z,51.08
2022-09-11T01:25:18.348Z,52.05
2022-09-11T01:26:18.310Z,52.21
2022-09-11T01:27:18.292Z,52.21
2022-09-11T01:28:18.282Z,51.08
2022-09-11T01:29:18.289Z,50.92
2022-09-11T01:30:18.234Z,52.05
2022-09-11T01:31:18.294Z,52.69
2022-09-11T01:32:18.206Z,51.24
2022-09-11T01:33:18.199Z,50.92
2022-09-11T01:34:18.258Z,49.63
2022-09-11T01:35:18.232Z,49.63
2022-09-11T01:36:18.135Z,50.60
2022-09-11T01:37:18.125Z,51.72
2022-09-11T01:38:18.111Z,50.43
2022-09-11T01:39:18.116Z,49.95
2022-09-11T01:40:18.068Z,50.11
2022-09-11T01:41:18.076Z,49.47
2022-09-11T01:42:18.034Z,51.56
2022-09-11T01:43:18.018Z,51.72
2022-09-11T01:44:18.031Z,50.60
2022-09-11T01:45:17.982Z,50.76
2022-09-11T01:46:17.985Z,50.60
2022-09-11T01:47:17.956Z,50.27
2022-09-11T01:48:17.942Z,50.27
2022-09-11T01:49:17.958Z,51.24
2022-09-11T01:50:17.911Z,50.92
2022-09-11T01:51:17.885Z,51.72
2022-09-11T01:52:17.873Z,49.31
2022-09-11T01:53:17.851Z,49.95
2022-09-11T01:54:17.861Z,49.63
2022-09-11T01:55:17.836Z,50.76
2022-09-11T01:56:17.810Z,53.17
2022-09-11T01:57:17.802Z,50.27
2022-09-11T01:58:17.781Z,49.47
2022-09-11T01:59:17.807Z,51.24
2022-09-11T02:00:17.730Z,52.05
2022-09-11T02:01:18.718Z,50.60
2022-09-11T02:02:17.753Z,50.60
2022-09-11T02:03:17.699Z,53.33
2022-09-11T02:04:17.704Z,51.56
2022-09-11T02:05:17.648Z,50.60
2022-09-11T02:06:17.639Z,50.76
2022-09-11T02:07:17.622Z,51.40
2022-09-11T02:08:17.625Z,49.15
2022-09-11T02:09:17.625Z,49.47
2022-09-11T02:10:17.584Z,51.56
2022-09-11T02:11:17.564Z,50.76
2022-09-11T02:12:17.601Z,52.05
2022-09-11T02:13:17.576Z,51.08
2022-09-11T02:14:17.559Z,54.30
2022-09-11T02:15:17.492Z,52.53
2022-09-11T02:16:17.494Z,51.88
2022-09-11T02:17:17.474Z,49.95
2022-09-11T02:18:17.438Z,48.98
2022-09-11T02:19:17.461Z,49.47
2022-09-11T02:20:18.419Z,49.79
2022-09-11T02:21:17.403Z,50.11
2022-09-11T02:22:17.415Z,52.05
2022-09-11T02:23:17.368Z,50.92
2022-09-11T02:24:17.403Z,51.40
2022-09-11T02:25:17.330Z,50.43
2022-09-11T02:26:17.311Z,51.24
2022-09-11T02:27:17.303Z,51.88
2022-09-11T02:28:17.308Z,51.24
2022-09-11T02:29:17.353Z,51.56
2022-09-11T02:30:17.262Z,52.37
2022-09-11T02:31:17.270Z,51.56
2022-09-11T02:32:17.208Z,52.53
2022-09-11T02:33:17.210Z,50.76
2022-09-11T02:34:17.206Z,51.72
2022-09-11T02:35:17.208Z,50.11
2022-09-11T02:36:17.158Z,53.82
2022-09-11T02:37:17.150Z,53.01
2022-09-11T02:38:17.112Z,50.11
2022-09-11T02:39:17.127Z,50.60
2022-09-11T02:40:17.210Z,51.08
2022-09-11T02:41:17.086Z,50.11
2022-09-11T02:42:17.067Z,51.40
2022-09-11T02:43:17.024Z,51.08
2022-09-11T02:44:17.050Z,50.27
2022-09-11T02:45:17.007Z,50.43
2022-09-11T02:46:16.972Z,50.76
2022-09-11T02:47:17.050Z,51.88
2022-09-11T02:48:16.934Z,50.60
2022-09-11T02:49:16.952Z,51.40
2022-09-11T02:50:16.906Z,49.79
2022-09-11T02:51:16.899Z,50.76
2022-09-11T02:52:16.876Z,51.72
2022-09-11T02:53:16.866Z,52.05
2022-09-11T02:54:16.876Z,50.76
2022-09-11T02:55:16.836Z,49.47
2022-09-11T02:56:16.819Z,49.31
2022-09-11T02:57:16.801Z,51.56
2022-09-11T02:58:16.790Z,50.43
2022-09-11T02:59:16.803Z,50.11
2022-09-11T03:00:16.754Z,52.21
2022-09-11T03:01:16.753Z,51.56
2022-09-11T03:02:16.750Z,54.30
2022-09-11T03:03:16.698Z,52.05
2022-09-11T03:04:16.755Z,51.56
2022-09-11T03:05:16.654Z,54.46
2022-09-11T03:06:16.648Z,48.98
2022-09-11T03:07:16.642Z,51.24
2022-09-11T03:08:16.608Z,51.72
2022-09-11T03:09:16.615Z,51.08
2022-09-11T03:10:16.583Z,52.37
2022-09-11T03:11:16.565Z,52.37
2022-09-11T03:12:16.544Z,50.92
2022-09-11T03:13:16.550Z,50.11
2022-09-11T03:14:16.560Z,51.72
2022-09-11T03:15:16.508Z,53.01
2022-09-11T03:16:16.569Z,50.92
2022-09-11T03:17:16.460Z,49.15
2022-09-11T03:18:16.438Z,49.31
2022-09-11T03:19:16.484Z,49.47
2022-09-11T03:20:16.407Z,48.82
2022-09-11T03:21:16.403Z,52.05
2022-09-11T03:22:16.394Z,53.50
2022-09-11T03:23:16.355Z,50.43
2022-09-11T03:24:16.376Z,50.60
2022-09-11T03:25:16.336Z,51.72
2022-09-11T03:26:16.326Z,50.76
2022-09-11T03:27:16.295Z,50.43
2022-09-11T03:28:16.285Z,50.27
2022-09-11T03:29:16.293Z,50.11
2022-09-11T03:30:16.267Z,51.08
2022-09-11T03:31:16.292Z,52.85
2022-09-11T03:32:16.238Z,50.92
2022-09-11T03:33:16.185Z,53.17
2022-09-11T03:34:16.199Z,53.17
2022-09-11T03:35:16.168Z,51.56
2022-09-11T03:36:16.135Z,52.21
2022-09-11T03:37:16.119Z,52.53
2022-09-11T03:38:16.102Z,53.17
2022-09-11T03:39:16.111Z,51.88
2022-09-11T03:40:16.114Z,54.62
2022-09-11T03:41:16.064Z,53.01
2022-09-11T03:42:16.030Z,51.88
2022-09-11T03:43:16.029Z,51.24
2022-09-11T03:44:16.035Z,50.60
2022-09-11T03:45:15.986Z,53.50
2022-09-11T03:46:15.972Z,51.56
2022-09-11T03:47:15.959Z,53.82
2022-09-11T03:48:15.930Z,53.01
2022-09-11T03:49:15.965Z,53.17
2022-09-11T03:50:15.897Z,49.95
2022-09-11T03:51:15.883Z,54.14
2022-09-11T03:52:15.868Z,53.98
2022-09-11T03:53:15.853Z,50.60
2022-09-11T03:54:15.865Z,50.43
2022-09-11T03:55:15.822Z,50.60
2022-09-11T03:56:15.810Z,50.27
2022-09-11T03:57:15.777Z,51.08
2022-09-11T03:58:15.774Z,51.24
2022-09-11T03:59:15.786Z,51.24
2022-09-11T04:00:15.736Z,53.01
2022-09-11T04:01:15.788Z,52.69
2022-09-11T04:02:15.769Z,52.69
2022-09-11T04:03:15.684Z,50.27
2022-09-11T04:04:15.710Z,53.01
2022-09-11T04:05:15.658Z,51.72
2022-09-11T04:06:15.643Z,51.08
2022-09-11T04:07:15.631Z,49.31
2022-09-11T04:08:15.633Z,53.01
2022-09-11T04:09:15.616Z,49.31
2022-09-11T04:10:15.601Z,50.60
2022-09-11T04:11:15.557Z,51.08
2022-09-11T04:12:15.528Z,58.17
2022-09-11T04:13:16.543Z,52.37
2022-09-11T04:14:15.535Z,50.43
2022-09-11T04:15:15.496Z,52.85
2022-09-11T04:16:15.508Z,51.08
2022-09-11T04:17:15.462Z,50.76
2022-09-11T04:18:15.456Z,52.05
2022-09-11T04:19:15.462Z,53.33
2022-09-11T04:20:15.420Z,54.46
2022-09-11T04:21:15.395Z,51.88
2022-09-11T04:22:15.378Z,53.33
2022-09-11T04:23:15.347Z,51.72
2022-09-11T04:24:15.365Z,51.40
2022-09-11T04:25:15.333Z,52.37
2022-09-11T04:26:15.302Z,55.59
2022-09-11T04:27:15.281Z,52.21
2022-09-11T04:28:15.263Z,57.85
2022-09-11T04:29:15.289Z,52.37
2022-09-11T04:30:15.244Z,50.92
2022-09-11T04:31:15.239Z,52.53
2022-09-11T04:32:15.295Z,54.95
2022-09-11T04:33:15.190Z,55.27
2022-09-11T04:34:15.200Z,53.01
2022-09-11T04:35:15.159Z,53.82
2022-09-11T04:36:15.133Z,53.50
2022-09-11T04:37:15.125Z,52.69
2022-09-11T04:38:15.104Z,51.08
2022-09-11T04:39:15.106Z,50.27
2022-09-11T04:40:15.065Z,51.40
2022-09-11T04:41:15.042Z,49.79
2022-09-11T04:42:15.028Z,50.11
2022-09-11T04:43:15.012Z,52.69
2022-09-11T04:44:15.031Z,53.01
2022-09-11T04:45:14.984Z,52.05
2022-09-11T04:46:14.980Z,54.14
2022-09-11T04:47:14.973Z,52.21
2022-09-11T04:48:14.941Z,52.21
2022-09-11T04:49:14.956Z,53.17
2022-09-11T04:50:14.898Z,49.63
2022-09-11T04:51:14.889Z,53.82
2022-09-11T04:52:14.871Z,53.33
2022-09-11T04:53:14.844Z,50.11
2022-09-11T04:54:14.858Z,50.43
2022-09-11T04:55:14.813Z,54.46
2022-09-11T04:56:14.797Z,55.11
2022-09-11T04:57:14.792Z,53.98
2022-09-11T04:58:14.772Z,53.17
2022-09-11T04:59:14.809Z,55.59
2022-09-11T05:00:14.738Z,56.24
2022-09-11T05:01:14.758Z,53.82
2022-09-11T05:02:14.758Z,55.11
2022-09-11T05:03:14.692Z,52.21
2022-09-11T05:04:14.692Z,51.08
2022-09-11T05:05:14.654Z,54.30
2022-09-11T05:06:14.632Z,53.82
2022-09-11T05:07:14.617Z,57.36
2022-09-11T05:08:14.608Z,54.79
2022-09-11T05:09:14.624Z,54.79
2022-09-11T05:10:14.582Z,54.79
2022-09-11T05:11:14.555Z,51.40
2022-09-11T05:12:14.585Z,52.69
2022-09-11T05:13:14.524Z,54.79
2022-09-11T05:14:14.530Z,56.07
2022-09-11T05:15:14.520Z,53.98
2022-09-11T05:16:14.510Z,54.30
2022-09-11T05:17:14.477Z,55.91
2022-09-11T05:18:14.446Z,57.04
2022-09-11T05:19:15.462Z,55.27
2022-09-11T05:20:14.397Z,51.88
2022-09-11T05:21:14.407Z,54.30
2022-09-11T05:22:14.365Z,53.98
2022-09-11T05:23:14.393Z,54.30
2022-09-11T05:24:14.339Z,53.33
2022-09-11T05:25:14.368Z,57.36
2022-09-11T05:26:14.308Z,56.88
2022-09-11T05:27:14.293Z,55.59
2022-09-11T05:28:14.420Z,55.75
2022-09-11T05:29:14.257Z,55.43
2022-09-11T05:30:14.229Z,54.30
2022-09-11T05:31:14.269Z,53.33
2022-09-11T05:32:14.198Z,54.14
2022-09-11T05:33:14.225Z,55.91
2022-09-11T05:34:14.169Z,52.85
2022-09-11T05:35:14.146Z,53.66
2022-09-11T05:36:14.136Z,57.04
2022-09-11T05:37:14.114Z,54.46
2022-09-11T05:38:14.119Z,53.33
2022-09-11T05:39:14.117Z,54.46
2022-09-11T05:40:14.160Z,58.33
2022-09-11T05:41:14.047Z,53.98
2022-09-11T05:42:14.035Z,55.11
2022-09-11T05:43:14.013Z,57.36
2022-09-11T05:44:14.055Z,56.24
2022-09-11T05:45:13.997Z,57.85
2022-09-11T05:46:13.967Z,55.59
2022-09-11T05:47:13.967Z,52.53
2022-09-11T05:48:13.966Z,52.21
2022-09-11T05:49:13.952Z,52.21
2022-09-11T05:50:13.901Z,53.50
2022-09-11T05:51:13.891Z,55.27
2022-09-11T05:52:13.867Z,54.46
2022-09-11T05:53:13.853Z,51.56
2022-09-11T05:54:13.871Z,55.75
2022-09-11T05:55:13.819Z,53.17
2022-09-11T05:56:13.799Z,56.07
2022-09-11T05:57:13.777Z,55.75
2022-09-11T05:58:13.760Z,53.66
2022-09-11T05:59:13.786Z,56.24
2022-09-11T06:00:13.723Z,57.20
2022-09-11T06:01:13.755Z,59.78
2022-09-11T06:02:13.718Z,55.59
2022-09-11T06:03:15.605Z,54.62
2022-09-11T06:04:14.714Z,54.95
2022-09-11T06:05:13.649Z,56.56
2022-09-11T06:06:13.709Z,57.04
2022-09-11T06:07:13.616Z,55.75
2022-09-11T06:08:13.628Z,56.07
2022-09-11T06:09:13.608Z,54.62
2022-09-11T06:10:13.570Z,58.33
2022-09-11T06:11:13.570Z,54.46
2022-09-11T06:12:13.530Z,57.52
2022-09-11T06:13:13.531Z,55.11
2022-09-11T06:14:13.536Z,57.04
2022-09-11T06:15:30.080Z,57.85
2022-09-11T06:16:18.333Z,58.65
2022-09-11T06:17:14.460Z,56.56
2022-09-11T06:18:13.466Z,55.91
2022-09-11T06:19:13.442Z,56.40
2022-09-11T06:20:13.397Z,58.49
2022-09-11T06:21:13.383Z,56.56
2022-09-11T06:22:13.392Z,59.14
2022-09-11T06:23:13.349Z,59.14
2022-09-11T06:24:13.354Z,54.30
2022-09-11T06:25:13.312Z,53.82
2022-09-11T06:26:13.297Z,57.52
2022-09-11T06:27:13.281Z,55.59
2022-09-11T06:28:13.293Z,56.56
2022-09-11T06:29:13.287Z,54.95
2022-09-11T06:30:13.243Z,55.75
2022-09-11T06:31:13.210Z,57.85
2022-09-11T06:32:13.219Z,55.59
2022-09-11T06:33:13.197Z,56.88
2022-09-11T06:34:13.200Z,58.33
2022-09-11T06:35:13.143Z,54.62
2022-09-11T06:36:13.132Z,57.36
2022-09-11T06:37:13.139Z,54.46
2022-09-11T06:38:13.111Z,55.27
2022-09-11T06:39:13.163Z,56.88
2022-09-11T06:40:13.097Z,54.14
2022-09-11T06:41:13.062Z,54.14
2022-09-11T06:42:13.035Z,56.56
2022-09-11T06:43:13.095Z,59.14
2022-09-11T06:44:13.034Z,55.27
2022-09-11T06:45:12.988Z,52.21
2022-09-11T06:46:13.047Z,57.69
2022-09-11T06:47:12.960Z,58.49
2022-09-11T06:48:12.965Z,57.20
2022-09-11T06:49:12.967Z,55.59
2022-09-11T06:50:12.921Z,56.56
2022-09-11T06:51:12.882Z,54.30
2022-09-11T06:52:12.875Z,58.17
2022-09-11T06:53:12.853Z,56.24
2022-09-11T06:54:12.913Z,55.43
2022-09-11T06:55:12.824Z,57.20
2022-09-11T06:56:12.822Z,57.36
2022-09-11T06:57:12.775Z,52.21
2022-09-11T06:58:12.841Z,56.24
2022-09-11T06:59:12.836Z,57.20
2022-09-11T07:00:12.732Z,60.42
2022-09-11T07:01:12.811Z,55.91
2022-09-11T07:02:12.785Z,58.97
2022-09-11T07:03:12.695Z,56.88
2022-09-11T07:04:12.682Z,58.81
2022-09-11T07:05:12.645Z,58.33
2022-09-11T07:06:12.621Z,56.72
2022-09-11T07:07:12.599Z,58.65
2022-09-11T07:08:12.616Z,57.20
2022-09-11T07:09:12.596Z,56.24
2022-09-11T07:10:12.547Z,58.01
2022-09-11T07:11:12.551Z,58.65
2022-09-11T07:12:12.562Z,58.97
2022-09-11T07:13:12.510Z,57.36
2022-09-11T07:14:12.520Z,57.36
2022-09-11T07:15:12.479Z,58.33
2022-09-11T07:16:12.492Z,56.72
2022-09-11T07:17:12.441Z,56.56
2022-09-11T07:18:12.414Z,57.04
2022-09-11T07:19:12.422Z,57.04
2022-09-11T07:20:12.380Z,58.65
2022-09-11T07:21:12.404Z,57.69
2022-09-11T07:22:12.341Z,57.20
2022-09-11T07:23:12.333Z,56.72
2022-09-11T07:24:12.346Z,60.91
2022-09-11T07:25:12.299Z,57.20
2022-09-11T07:26:12.284Z,58.81
2022-09-11T07:27:12.257Z,58.49
2022-09-11T07:28:12.258Z,56.24
2022-09-11T07:29:12.260Z,59.78
2022-09-11T07:30:12.218Z,57.69
2022-09-11T07:31:12.311Z,57.04
2022-09-11T07:32:12.271Z,58.01
2022-09-11T07:33:12.164Z,56.07
2022-09-11T07:34:12.320Z,56.24
2022-09-11T07:35:12.125Z,58.01
2022-09-11T07:36:12.216Z,59.30
2022-09-11T07:37:12.091Z,54.95
2022-09-11T07:38:12.073Z,57.36
2022-09-11T07:39:12.096Z,56.07
2022-09-11T07:40:12.072Z,61.23
2022-09-11T07:41:12.017Z,58.97
2022-09-11T07:42:12.001Z,59.94
2022-09-11T07:43:11.980Z,61.39
2022-09-11T07:44:12.018Z,58.33
2022-09-11T07:45:11.948Z,57.69
2022-09-11T07:46:11.960Z,57.36
2022-09-11T07:47:11.920Z,58.01
2022-09-11T07:48:11.950Z,58.49
2022-09-11T07:49:11.913Z,57.36
2022-09-11T07:50:11.865Z,57.36
2022-09-11T07:51:11.859Z,58.33
2022-09-11T07:52:16.223Z,60.10
2022-09-11T07:53:13.817Z,57.69
2022-09-11T07:54:11.827Z,58.97
2022-09-11T07:55:11.783Z,59.30
2022-09-11T07:56:11.784Z,55.27
2022-09-11T07:57:11.741Z,59.94
2022-09-11T07:58:11.773Z,58.33
2022-09-11T07:59:11.743Z,54.95
2022-09-11T08:00:11.700Z,57.52
2022-09-11T08:01:11.750Z,59.94
2022-09-11T08:02:11.750Z,57.69
2022-09-11T08:03:11.654Z,56.88
2022-09-11T08:04:11.685Z,60.42
2022-09-11T08:05:11.610Z,58.33
2022-09-11T08:06:11.645Z,58.81
2022-09-11T08:07:11.607Z,60.75
2022-09-11T08:08:11.604Z,60.42
2022-09-11T08:09:11.588Z,57.85
2022-09-11T08:10:26.587Z,58.81
2022-09-11T08:11:13.534Z,58.65
2022-09-11T08:12:11.496Z,58.01
2022-09-11T08:13:11.484Z,59.46
2022-09-11T08:14:11.509Z,57.04
2022-09-11T08:15:11.436Z,57.85
2022-09-11T08:16:11.453Z,60.91
2022-09-11T08:17:11.399Z,59.14
2022-09-11T08:18:11.393Z,58.01
2022-09-11T08:19:11.403Z,58.33
2022-09-11T08:20:11.348Z,58.17
2022-09-11T08:21:13.075Z,57.69
2022-09-11T08:22:12.323Z,59.78
2022-09-11T08:23:11.311Z,57.85
2022-09-11T08:24:11.317Z,57.04
2022-09-11T08:25:11.273Z,59.62
2022-09-11T08:26:11.245Z,58.01
2022-09-11T08:27:11.244Z,59.94
2022-09-11T08:28:11.342Z,58.65
2022-09-11T08:29:11.225Z,60.42
2022-09-11T08:30:11.169Z,58.81
2022-09-11T08:31:11.190Z,58.65
2022-09-11T08:32:11.176Z,57.20
2022-09-11T08:33:11.122Z,59.46
2022-09-11T08:34:11.147Z,60.91
2022-09-11T08:35:11.096Z,59.14
2022-09-11T08:36:11.085Z,59.14
2022-09-11T08:37:11.054Z,60.59
2022-09-11T08:38:11.109Z,58.97
2022-09-11T08:39:11.061Z,58.97
2022-09-11T08:40:11.048Z,57.85
2022-09-11T08:41:10.984Z,60.59
2022-09-11T08:42:10.981Z,58.33
2022-09-11T08:43:10.946Z,59.30
2022-09-11T08:44:10.968Z,60.26
2022-09-11T08:45:10.958Z,60.75
2022-09-11T08:46:11.010Z,59.46
2022-09-11T08:47:10.891Z,60.91
2022-09-11T08:48:10.900Z,61.07
2022-09-11T08:49:10.890Z,56.24
2022-09-11T08:50:10.832Z,61.39
2022-09-11T08:51:10.858Z,57.52
2022-09-11T08:52:10.801Z,58.97
2022-09-11T08:53:12.835Z,58.01
2022-09-11T08:54:11.807Z,60.26
2022-09-11T08:55:10.734Z,60.42
2022-09-11T08:56:10.728Z,60.91
2022-09-11T08:57:10.718Z,60.42
2022-09-11T08:58:10.725Z,61.39
2022-09-11T08:59:10.678Z,61.55
2022-09-11T09:00:10.706Z,60.59
2022-09-11T09:01:10.692Z,61.71
2022-09-11T09:02:10.684Z,61.39
2022-09-11T09:03:10.599Z,59.94
2022-09-11T09:04:10.631Z,58.97
2022-09-11T09:05:10.592Z,58.97
2022-09-11T09:06:10.560Z,57.52
2022-09-11T09:07:10.564Z,59.94
2022-09-11T09:08:10.524Z,59.30
2022-09-11T09:09:11.524Z,60.91
2022-09-11T09:10:10.526Z,60.26
2022-09-11T09:11:10.477Z,60.91
2022-09-11T09:12:10.445Z,57.36
2022-09-11T09:13:10.535Z,61.55
2022-09-11T09:14:10.405Z,58.81
2022-09-11T09:15:10.409Z,56.88
2022-09-11T09:16:10.423Z,60.59
2022-09-11T09:17:10.354Z,60.42
2022-09-11T09:18:10.332Z,61.07
2022-09-11T09:19:10.335Z,56.24
2022-09-11T09:20:10.337Z,57.20
2022-09-11T09:21:10.285Z,59.46
2022-09-11T09:22:10.270Z,59.30
2022-09-11T09:23:10.252Z,60.26
2022-09-11T09:24:10.309Z,57.36
2022-09-11T09:25:10.253Z,59.30
2022-09-11T09:26:10.190Z,59.46
2022-09-11T09:27:10.203Z,58.49
2022-09-11T09:28:10.194Z,59.62
2022-09-11T09:29:10.137Z,58.01
2022-09-11T09:30:10.154Z,60.10
2022-09-11T09:31:10.137Z,60.42
2022-09-11T09:32:10.101Z,59.62
2022-09-11T09:33:13.206Z,55.75
2022-09-11T09:34:11.076Z,58.97
2022-09-11T09:35:10.119Z,59.94
2022-09-11T09:36:10.027Z,60.26
2022-09-11T09:37:10.043Z,60.42
2022-09-11T09:38:10.016Z,57.85
2022-09-11T09:39:09.966Z,58.33
2022-09-11T09:40:10.034Z,59.94
2022-09-11T09:41:09.927Z,57.52
2022-09-11T09:42:09.913Z,57.20
2022-09-11T09:43:09.889Z,58.81
2022-09-11T09:44:09.890Z,61.07
2022-09-11T09:45:09.887Z,59.94
2022-09-11T09:46:09.960Z,55.75
2022-09-11T09:47:09.838Z,59.94
2022-09-11T09:48:09.805Z,61.23
2022-09-11T09:49:09.796Z,60.75
2022-09-11T09:50:09.814Z,59.62
2022-09-11T09:51:09.759Z,59.46
2022-09-11T09:52:09.752Z,60.91
2022-09-11T09:53:09.730Z,61.39
2022-09-11T09:54:09.736Z,60.59
2022-09-11T09:55:09.816Z,58.65
2022-09-11T09:56:09.691Z,58.17
2022-09-11T09:57:09.657Z,58.97
2022-09-11T09:58:09.703Z,59.14
2022-09-11T09:59:09.619Z,58.97
2022-09-11T10:00:09.632Z,59.14
2022-09-11T10:01:09.616Z,60.91
2022-09-11T10:02:09.596Z,56.56
2022-09-11T10:03:09.542Z,60.91
2022-09-11T10:04:09.629Z,61.55
2022-09-11T10:05:09.533Z,58.97
2022-09-11T10:06:09.487Z,61.87
2022-09-11T10:07:09.467Z,57.69
2022-09-11T10:08:09.492Z,57.20
2022-09-11T10:09:09.435Z,60.91
2022-09-11T10:10:09.506Z,59.14
2022-09-11T10:11:09.400Z,57.36
2022-09-11T10:12:10.226Z,57.20
2022-09-11T10:13:19.176Z,59.14
2022-09-11T10:14:13.646Z,58.33
2022-09-11T10:15:11.370Z,57.36
2022-09-11T10:16:09.366Z,61.87
2022-09-11T10:17:09.301Z,58.97
2022-09-11T10:18:09.310Z,58.97
2022-09-11T10:19:09.273Z,61.23
2022-09-11T10:20:09.304Z,60.26
2022-09-11T10:21:09.235Z,59.94
2022-09-11T10:22:09.219Z,60.42
2022-09-11T10:23:09.215Z,60.59
2022-09-11T10:24:09.235Z,58.33
2022-09-11T10:25:09.245Z,60.91
2022-09-11T10:26:09.246Z,60.91
2022-09-11T10:27:09.208Z,60.42
2022-09-11T10:28:09.123Z,60.42
2022-09-11T10:29:09.139Z,58.01
2022-09-11T10:30:09.169Z,60.59
2022-09-11T10:31:09.138Z,61.55
2022-09-11T10:32:09.045Z,61.39
2022-09-11T10:33:09.115Z,58.17
2022-09-11T10:34:09.012Z,56.88
2022-09-11T10:35:09.048Z,56.88
2022-09-11T10:36:08.970Z,57.52
2022-09-11T10:37:08.962Z,61.39
2022-09-11T10:38:09.021Z,58.49
2022-09-11T10:39:08.936Z,57.36
2022-09-11T10:40:08.998Z,60.91
2022-09-11T10:41:08.912Z,58.65
2022-09-11T10:42:08.866Z,59.14
2022-09-11T10:43:08.854Z,58.81
2022-09-11T10:44:08.829Z,61.23
2022-09-11T10:45:08.859Z,58.97
2022-09-11T10:46:08.834Z,59.62
2022-09-11T10:47:08.824Z,59.62
2022-09-11T10:48:08.828Z,58.33
2022-09-11T10:49:08.747Z,59.62
2022-09-11T10:50:08.763Z,59.46
2022-09-11T10:51:08.749Z,61.07
2022-09-11T10:52:08.743Z,60.91
2022-09-11T10:53:08.688Z,60.26
2022-09-11T10:54:08.699Z,60.42
2022-09-11T10:55:08.708Z,61.71
2022-09-11T10:56:08.683Z,62.20
2022-09-11T10:57:08.637Z,60.59
2022-09-11T10:58:08.607Z,61.39
2022-09-11T10:59:08.610Z,59.94
2022-09-11T11:00:08.625Z,63.00
2022-09-11T11:01:08.603Z,61.23
2022-09-11T11:02:08.570Z,59.94
2022-09-11T11:03:08.540Z,57.52
2022-09-11T11:04:12.191Z,61.39
2022-09-11T11:05:09.526Z,59.46
2022-09-11T11:06:08.507Z,61.07
2022-09-11T11:07:08.451Z,59.46
2022-09-11T11:08:08.486Z,60.10
2022-09-11T11:09:08.420Z,60.42
2022-09-11T11:10:08.429Z,58.33
2022-09-11T11:11:08.384Z,59.46
2022-09-11T11:12:08.368Z,59.46
2022-09-11T11:13:08.336Z,55.91
2022-09-11T11:14:08.378Z,57.20
2022-09-11T11:15:08.359Z,58.81
2022-09-11T11:16:08.348Z,58.01
2022-09-11T11:17:08.274Z,57.20
2022-09-11T11:18:08.237Z,60.91
2022-09-11T11:19:08.229Z,62.04
2022-09-11T11:20:08.241Z,60.59
2022-09-11T11:21:08.198Z,60.26
2022-09-11T11:22:08.174Z,58.49
2022-09-11T11:23:08.157Z,59.78
2022-09-11T11:24:08.146Z,60.59
2022-09-11T11:25:08.229Z,56.56
2022-09-11T11:26:08.125Z,58.17
2022-09-11T11:27:08.206Z,60.91
2022-09-11T11:28:08.120Z,58.01
2022-09-11T11:29:08.066Z,59.94
2022-09-11T11:30:08.071Z,58.49
2022-09-11T11:31:08.124Z,58.33
2022-09-11T11:32:08.013Z,55.75
2022-09-11T11:33:07.999Z,58.33
2022-09-11T11:34:07.989Z,58.81
2022-09-11T11:35:07.990Z,60.26
2022-09-11T11:36:07.982Z,57.52
2022-09-11T11:37:07.950Z,60.59
2022-09-11T11:38:07.983Z,58.65
2022-09-11T11:39:07.955Z,59.30
2022-09-11T11:40:08.030Z,59.30
2022-09-11T11:41:07.889Z,60.59
2022-09-11T11:42:07.846Z,57.20
2022-09-11T11:43:07.833Z,59.78
2022-09-11T11:44:07.835Z,59.30
2022-09-11T11:45:08.628Z,61.39
2022-09-11T11:46:07.820Z,58.01
2022-09-11T11:47:07.767Z,55.27
2022-09-11T11:48:07.838Z,57.04
2022-09-11T11:49:07.777Z,56.40
2022-09-11T11:50:07.750Z,56.40
2022-09-11T11:51:07.695Z,60.75
2022-09-11T11:52:07.692Z,60.26
2022-09-11T11:53:07.669Z,59.94
2022-09-11T11:54:07.659Z,60.91
2022-09-11T11:55:07.666Z,58.17
2022-09-11T11:56:07.622Z,58.17
2022-09-11T11:57:07.608Z,57.04
2022-09-11T11:58:07.637Z,58.49
2022-09-11T11:59:07.574Z,58.33
2022-09-11T12:00:07.595Z,57.52
2022-09-11T12:01:07.565Z,58.01
2022-09-11T12:02:07.598Z,56.72
2022-09-11T12:03:07.518Z,60.75
2022-09-11T12:04:07.523Z,61.55
2022-09-11T12:05:07.511Z,58.33
2022-09-11T12:06:07.470Z,59.30
2022-09-11T12:07:07.437Z,61.87
2022-09-11T12:08:07.473Z,61.23
2022-09-11T12:09:07.447Z,60.26
2022-09-11T12:10:07.420Z,62.04
2022-09-11T12:11:07.372Z,60.91
2022-09-11T12:12:07.369Z,59.46
2022-09-11T12:13:07.346Z,58.97
2022-09-11T12:14:07.362Z,60.10
2022-09-11T12:15:07.307Z,60.75
2022-09-11T12:16:11.058Z,60.10
2022-09-11T12:17:08.277Z,59.30
2022-09-11T12:18:07.280Z,61.71
2022-09-11T12:19:07.249Z,60.91
2022-09-11T12:20:07.246Z,61.07
2022-09-11T12:21:07.235Z,58.65
2022-09-11T12:22:07.203Z,60.42
2022-09-11T12:23:07.174Z,57.69
2022-09-11T12:24:07.160Z,61.39
2022-09-11T12:25:07.216Z,61.39
2022-09-11T12:26:07.156Z,57.36
2022-09-11T12:27:11.165Z,57.20
2022-09-11T12:28:08.127Z,58.33
2022-09-11T12:29:07.093Z,58.97
2022-09-11T12:30:07.058Z,55.27
2022-09-11T12:31:07.178Z,57.04
2022-09-11T12:32:07.021Z,57.52
2022-09-11T12:33:07.026Z,60.42
2022-09-11T12:34:07.005Z,62.04
2022-09-11T12:35:06.992Z,58.97
2022-09-11T12:36:07.021Z,60.10
2022-09-11T12:37:07.001Z,60.10
2022-09-11T12:38:07.014Z,61.87
2022-09-11T12:39:06.988Z,60.91
2022-09-11T12:40:06.946Z,62.04
2022-09-11T12:41:06.932Z,61.23
2022-09-11T12:42:06.909Z,60.10
2022-09-11T12:43:09.136Z,56.56
2022-09-11T12:44:07.842Z,58.17
2022-09-11T12:45:06.835Z,59.78
2022-09-11T12:46:06.903Z,59.94
2022-09-11T12:47:06.789Z,59.94
2022-09-11T12:48:06.767Z,56.56
2022-09-11T12:49:21.618Z,60.75
2022-09-11T12:50:08.735Z,58.81
2022-09-11T12:51:06.763Z,60.10
2022-09-11T12:52:06.712Z,61.23